createdAt,value
2017-12-15T00:00:25.967Z,16.07
2017-12-15T00:02:52.244Z,11.33
2017-12-15T00:05:18.488Z,11.10
2017-12-15T00:07:44.750Z,9.60
2017-12-15T00:10:11.020Z,12.17
2017-12-15T00:12:37.399Z,11.77
2017-12-15T00:15:04.417Z,9.70
2017-12-15T00:17:30.722Z,13.00
2017-12-15T00:19:56.984Z,8.27
2017-12-15T00:22:23.307Z,10.20
2017-12-15T00:24:49.564Z,12.23
2017-12-15T00:27:16.597Z,10.07
2017-12-15T00:29:42.895Z,10.10
2017-12-15T00:32:09.152Z,12.80
2017-12-15T00:34:35.411Z,9.67
2017-12-15T00:37:01.671Z,14.67
2017-12-15T00:39:27.939Z,10.87
2017-12-15T00:41:54.225Z,10.80
2017-12-15T00:44:20.502Z,12.27
2017-12-15T00:46:47.526Z,12.03
2017-12-15T00:49:13.809Z,14.10
2017-12-15T00:51:40.088Z,7.70
2017-12-15T00:54:07.085Z,13.07
2017-12-15T00:56:33.375Z,6.20
2017-12-15T00:58:59.697Z,9.07
2017-12-15T01:01:25.948Z,10.00
2017-12-15T01:03:52.972Z,7.00
2017-12-15T01:06:19.267Z,10.93
2017-12-15T01:08:45.577Z,8.67
2017-12-15T01:11:11.837Z,8.70
2017-12-15T01:13:38.118Z,14.30
2017-12-15T01:16:05.170Z,11.00
2017-12-15T01:18:32.208Z,7.70
2017-12-15T01:20:59.262Z,6.40
2017-12-15T01:23:26.261Z,7.70
2017-12-15T01:25:52.530Z,9.03
2017-12-15T01:28:19.539Z,10.40
2017-12-15T01:30:46.638Z,7.83
2017-12-15T01:33:12.891Z,8.07
2017-12-15T01:35:39.902Z,6.03
2017-12-15T01:38:06.904Z,9.23
2017-12-15T01:40:33.173Z,9.77
2017-12-15T01:42:59.440Z,13.10
2017-12-15T01:45:25.778Z,6.53
2017-12-15T01:47:52.040Z,5.87
2017-12-15T01:50:18.311Z,8.00
2017-12-15T01:52:45.274Z,7.90
2017-12-15T01:55:11.555Z,5.80
2017-12-15T01:57:37.853Z,6.03
2017-12-15T02:00:04.154Z,6.37
2017-12-15T02:02:30.437Z,5.70
2017-12-15T02:04:56.718Z,8.03
2017-12-15T02:07:22.993Z,5.77
2017-12-15T02:09:49.266Z,12.77
2017-12-15T02:12:15.513Z,6.40
2017-12-15T02:14:41.797Z,6.70
2017-12-15T02:17:09.514Z,4.87
2017-12-15T02:19:35.802Z,10.30
2017-12-15T02:22:02.800Z,10.70
2017-12-15T02:24:29.038Z,7.27
2017-12-15T02:26:55.298Z,10.00
2017-12-15T02:29:21.578Z,8.90
2017-12-15T02:31:47.854Z,6.50
2017-12-15T02:34:14.153Z,8.73
2017-12-15T02:36:40.443Z,8.23
2017-12-15T02:39:06.712Z,6.37
2017-12-15T02:41:32.973Z,7.20
2017-12-15T02:44:00.014Z,8.43
2017-12-15T02:46:26.275Z,8.23
2017-12-15T02:48:52.542Z,6.20
2017-12-15T02:51:18.804Z,7.87
2017-12-15T02:53:45.078Z,6.03
2017-12-15T02:56:11.401Z,6.30
2017-12-15T02:58:37.677Z,7.70
2017-12-15T03:01:03.949Z,8.67
2017-12-15T03:03:30.226Z,9.73
2017-12-15T03:05:56.544Z,7.70
2017-12-15T03:08:22.849Z,7.83
2017-12-15T03:10:49.163Z,13.77
2017-12-15T03:13:16.217Z,11.10
2017-12-15T03:15:42.630Z,9.10
2017-12-15T03:18:09.651Z,10.03
2017-12-15T03:20:35.912Z,9.10
2017-12-15T03:23:02.943Z,9.00
2017-12-15T03:25:29.177Z,9.33
2017-12-15T03:27:55.433Z,11.90
2017-12-15T03:30:21.700Z,18.60
2017-12-15T03:32:47.952Z,11.40
2017-12-15T03:35:14.192Z,9.90
2017-12-15T03:37:40.445Z,10.50
2017-12-15T03:40:06.675Z,8.87
2017-12-15T03:42:32.949Z,8.57
2017-12-15T03:44:59.216Z,13.50
2017-12-15T03:47:26.224Z,11.53
2017-12-15T03:49:52.458Z,9.20
2017-12-15T03:52:18.792Z,10.27
2017-12-15T03:54:45.108Z,11.10
2017-12-15T03:57:11.367Z,9.90
2017-12-15T03:59:37.616Z,10.60
2017-12-15T04:02:04.656Z,12.50
2017-12-15T04:04:31.638Z,15.07
2017-12-15T04:06:58.002Z,12.40
2017-12-15T04:09:24.227Z,10.07
2017-12-15T04:11:50.557Z,12.13
2017-12-15T04:14:16.899Z,10.20
2017-12-15T04:16:43.206Z,11.63
2017-12-15T04:19:09.485Z,15.40
2017-12-15T04:21:36.522Z,11.57
2017-12-15T04:24:02.772Z,11.90
2017-12-15T04:26:29.881Z,14.20
2017-12-15T04:28:56.146Z,15.33
2017-12-15T04:31:23.272Z,14.30
2017-12-15T04:33:49.531Z,15.40
2017-12-15T04:36:16.539Z,15.00
2017-12-15T04:38:42.809Z,11.40
2017-12-15T04:41:09.095Z,10.87
2017-12-15T04:43:35.364Z,12.50
2017-12-15T04:46:01.659Z,12.60
2017-12-15T04:48:27.997Z,14.53
2017-12-15T04:50:55.032Z,12.90
2017-12-15T04:53:21.298Z,17.47
2017-12-15T04:55:48.309Z,13.93
2017-12-15T04:58:14.572Z,16.70
2017-12-15T05:00:41.608Z,11.00
2017-12-15T05:03:08.606Z,13.43
2017-12-15T05:05:34.887Z,16.17
2017-12-15T05:08:01.859Z,15.40
2017-12-15T05:10:28.127Z,26.40
2017-12-15T05:12:54.432Z,14.50
2017-12-15T05:15:20.720Z,16.33
2017-12-15T05:17:47.737Z,15.03
2017-12-15T05:20:13.997Z,16.00
2017-12-15T05:22:40.242Z,20.80
2017-12-15T05:25:06.515Z,16.17
2017-12-15T05:27:32.781Z,15.43
2017-12-15T05:29:59.876Z,14.03
2017-12-15T05:32:26.141Z,17.73
2017-12-15T05:34:52.427Z,14.98
2017-12-15T05:37:18.686Z,18.05
2017-12-15T05:39:46.478Z,18.70
2017-12-15T05:42:13.493Z,19.85
2017-12-15T05:44:39.804Z,18.80
2017-12-15T05:47:06.075Z,17.67
2017-12-15T05:49:32.330Z,18.37
2017-12-15T05:51:58.720Z,16.67
2017-12-15T05:54:25.005Z,18.02
2017-12-15T05:56:51.227Z,21.60
2017-12-15T05:59:17.478Z,19.30
2017-12-15T06:01:43.748Z,18.00
2017-12-15T06:04:10.009Z,19.77
2017-12-15T06:06:36.272Z,20.60
2017-12-15T06:09:02.599Z,21.70
2017-12-15T06:11:28.931Z,19.87
2017-12-15T06:13:55.329Z,20.63
2017-12-15T06:16:21.695Z,23.13
2017-12-15T06:18:47.943Z,20.80
2017-12-15T06:21:14.211Z,21.57
2017-12-15T06:23:41.187Z,21.70
2017-12-15T06:26:07.460Z,21.20
2017-12-15T06:28:33.770Z,23.27
2017-12-15T06:31:00.071Z,18.87
2017-12-15T06:33:26.362Z,19.10
2017-12-15T06:35:52.651Z,21.73
2017-12-15T06:38:19.678Z,24.95
2017-12-15T06:40:46.021Z,30.37
2017-12-15T06:43:12.299Z,27.70
2017-12-15T06:45:39.323Z,32.13
2017-12-15T06:48:05.677Z,26.15
2017-12-15T06:50:32.699Z,22.27
2017-12-15T06:52:58.975Z,23.93
2017-12-15T06:55:26.062Z,27.80
2017-12-15T06:57:52.323Z,27.20
2017-12-15T07:00:20.078Z,30.13
2017-12-15T07:02:50.129Z,27.37
2017-12-15T07:05:17.143Z,26.73
2017-12-15T07:07:43.387Z,24.03
2017-12-15T07:10:09.608Z,25.10
2017-12-15T07:12:35.851Z,23.43
2017-12-15T07:15:02.836Z,21.97
2017-12-15T07:17:29.084Z,22.23
2017-12-15T07:19:55.325Z,26.12
2017-12-15T07:22:21.599Z,24.63
2017-12-15T07:24:47.875Z,28.47
2017-12-15T07:27:14.402Z,28.97
2017-12-15T07:29:40.652Z,23.87
2017-12-15T07:32:07.096Z,24.17
2017-12-15T07:34:33.671Z,26.33
2017-12-15T07:36:59.913Z,32.90
2017-12-15T07:39:26.184Z,24.03
2017-12-15T07:41:52.660Z,25.27
2017-12-15T07:44:19.235Z,28.27
2017-12-15T07:46:45.486Z,25.97
2017-12-15T07:49:11.893Z,31.07
2017-12-15T07:51:38.170Z,25.50
2017-12-15T07:54:05.183Z,28.77
2017-12-15T07:56:31.659Z,27.60
2017-12-15T07:58:57.912Z,24.97
2017-12-15T08:01:24.168Z,29.20
2017-12-15T08:03:51.542Z,22.20
2017-12-15T08:06:17.808Z,21.40
2017-12-15T08:08:45.210Z,22.40
2017-12-15T08:11:11.739Z,25.37
2017-12-15T08:13:38.005Z,24.80
2017-12-15T08:16:05.024Z,25.70
2017-12-15T08:18:31.521Z,26.90
2017-12-15T08:20:57.776Z,22.77
2017-12-15T08:23:24.047Z,25.87
2017-12-15T08:25:51.330Z,26.70
2017-12-15T08:28:17.575Z,23.60
2017-12-15T08:30:43.845Z,28.10
2017-12-15T08:33:10.282Z,27.30
2017-12-15T08:35:36.543Z,24.10
2017-12-15T08:38:02.821Z,28.37
2017-12-15T08:40:29.300Z,27.10
2017-12-15T08:42:56.317Z,25.70
2017-12-15T08:45:22.767Z,28.00
2017-12-15T08:47:50.036Z,29.40
2017-12-15T08:50:16.288Z,28.73
2017-12-15T08:52:42.544Z,30.80
2017-12-15T08:55:09.040Z,28.90
2017-12-15T08:57:35.293Z,28.63
2017-12-15T09:00:01.565Z,32.67
2017-12-15T09:02:28.732Z,24.90
2017-12-15T09:04:54.997Z,29.30
2017-12-15T09:07:21.443Z,30.87
2017-12-15T09:09:47.735Z,33.13
2017-12-15T09:12:14.007Z,36.47
2017-12-15T09:14:40.502Z,35.63
2017-12-15T09:17:06.766Z,31.63
2017-12-15T09:19:33.029Z,41.03
2017-12-15T09:22:00.399Z,29.43
2017-12-15T09:24:26.670Z,32.57
2017-12-15T09:26:52.939Z,34.03
2017-12-15T09:29:19.392Z,31.63
2017-12-15T09:31:45.636Z,46.80
2017-12-15T09:34:11.883Z,37.00
2017-12-15T09:36:38.351Z,40.63
2017-12-15T09:39:04.563Z,38.70
2017-12-15T09:41:30.821Z,44.33
2017-12-15T09:43:57.249Z,46.67
2017-12-15T09:46:23.879Z,51.30
2017-12-15T09:48:50.115Z,59.57
2017-12-15T09:51:16.688Z,47.67
2017-12-15T09:53:42.915Z,43.10
2017-12-15T09:56:09.160Z,62.80
2017-12-15T09:58:35.748Z,56.00
2017-12-15T10:01:01.973Z,56.13
2017-12-15T10:03:28.233Z,53.73
2017-12-15T10:05:54.658Z,57.10
2017-12-15T10:08:21.622Z,55.73
2017-12-15T10:10:48.080Z,55.27
2017-12-15T10:13:14.582Z,53.37
2017-12-15T10:15:40.818Z,53.23
2017-12-15T10:18:07.083Z,57.37
2017-12-15T10:20:33.563Z,47.10
2017-12-15T10:22:59.825Z,49.70
2017-12-15T10:25:26.054Z,54.40
2017-12-15T10:27:52.568Z,55.93
2017-12-15T10:30:18.813Z,43.27
2017-12-15T10:32:45.045Z,49.37
2017-12-15T10:35:11.664Z,41.70
2017-12-15T10:37:37.900Z,38.20
2017-12-15T10:40:04.139Z,45.10
2017-12-15T10:42:30.567Z,43.43
2017-12-15T10:44:56.795Z,44.17
2017-12-15T10:47:23.366Z,44.27
2017-12-15T10:49:49.854Z,46.87
2017-12-15T10:52:16.107Z,43.77
2017-12-15T10:54:42.369Z,31.60
2017-12-15T10:57:08.836Z,48.60
2017-12-15T10:59:35.071Z,37.73
2017-12-15T11:02:01.332Z,46.87
2017-12-15T11:04:28.507Z,46.30
2017-12-15T11:06:56.229Z,49.17
2017-12-15T11:09:22.457Z,46.17
2017-12-15T11:11:48.992Z,45.33
2017-12-15T11:14:15.248Z,47.13
2017-12-15T11:16:41.484Z,46.00
2017-12-15T11:19:08.692Z,43.70
2017-12-15T11:21:34.940Z,46.90
2017-12-15T11:24:01.178Z,43.37
2017-12-15T11:26:27.646Z,40.67
2017-12-15T11:28:54.630Z,49.07
2017-12-15T11:31:20.867Z,51.30
2017-12-15T11:33:47.303Z,40.57
2017-12-15T11:36:13.563Z,40.43
2017-12-15T11:38:39.819Z,43.90
2017-12-15T11:41:06.986Z,39.50
2017-12-15T11:43:33.273Z,37.83
2017-12-15T11:45:59.577Z,41.03
2017-12-15T11:48:26.389Z,37.03
2017-12-15T11:50:52.651Z,39.70
2017-12-15T11:53:18.937Z,31.50
2017-12-15T11:55:46.191Z,40.80
2017-12-15T11:58:13.173Z,32.97
2017-12-15T12:00:39.436Z,37.17
2017-12-15T12:03:05.716Z,39.07
2017-12-15T12:05:32.001Z,38.17
2017-12-15T12:07:58.282Z,31.03
2017-12-15T12:10:24.515Z,31.40
2017-12-15T12:12:50.797Z,30.27
2017-12-15T12:15:17.830Z,38.93
2017-12-15T12:17:44.145Z,35.10
2017-12-15T12:20:10.402Z,32.80
2017-12-15T12:22:37.416Z,40.43
2017-12-15T12:25:03.695Z,34.10
2017-12-15T12:27:30.732Z,35.33
2017-12-15T12:29:57.740Z,31.03
2017-12-15T12:32:23.999Z,39.93
2017-12-15T12:34:50.234Z,30.33
2017-12-15T12:37:16.525Z,34.00
2017-12-15T12:39:43.502Z,35.73
2017-12-15T12:42:09.766Z,35.10
2017-12-15T12:44:35.999Z,32.53
2017-12-15T12:47:02.271Z,38.27
2017-12-15T12:49:28.540Z,36.43
2017-12-15T12:51:54.821Z,37.93
2017-12-15T12:54:21.062Z,32.27
2017-12-15T12:56:47.329Z,41.03
2017-12-15T12:59:13.598Z,30.90
2017-12-15T13:01:39.924Z,38.07
2017-12-15T13:04:06.243Z,41.47
2017-12-15T13:06:32.537Z,37.20
2017-12-15T13:08:59.541Z,34.70
2017-12-15T13:11:25.853Z,35.03
2017-12-15T13:13:52.090Z,27.27
2017-12-15T13:16:18.648Z,34.53
2017-12-15T13:18:45.652Z,33.60
2017-12-15T13:21:11.928Z,33.57
2017-12-15T13:23:38.186Z,32.97
2017-12-15T13:26:05.248Z,33.27
2017-12-15T13:28:31.511Z,37.23
2017-12-15T13:30:57.795Z,29.80
2017-12-15T13:33:24.809Z,30.60
2017-12-15T13:35:51.073Z,27.27
2017-12-15T13:38:17.323Z,31.00
2017-12-15T13:40:43.598Z,29.70
2017-12-15T13:43:09.896Z,32.27
2017-12-15T13:45:36.152Z,32.70
2017-12-15T13:48:02.468Z,27.63
2017-12-15T13:50:28.771Z,33.37
2017-12-15T13:52:55.025Z,32.07
2017-12-15T13:55:21.334Z,28.80
2017-12-15T13:57:47.622Z,32.53
2017-12-15T14:00:14.608Z,29.80
2017-12-15T14:02:40.866Z,31.60
2017-12-15T14:05:07.149Z,26.10
2017-12-15T14:07:33.428Z,25.30
2017-12-15T14:09:59.671Z,55.60
2017-12-15T14:12:25.953Z,44.63
2017-12-15T14:14:52.188Z,34.73
2017-12-15T14:17:18.459Z,35.70
2017-12-15T14:19:44.721Z,41.90
2017-12-15T14:22:10.994Z,33.00
2017-12-15T14:24:37.245Z,26.20
2017-12-15T14:27:03.542Z,22.57
2017-12-15T14:29:29.820Z,24.77
2017-12-15T14:31:56.869Z,29.20
2017-12-15T14:34:23.858Z,32.83
2017-12-15T14:36:50.199Z,29.60
2017-12-15T14:39:16.472Z,25.90
2017-12-15T14:41:43.495Z,25.20
2017-12-15T14:44:09.791Z,34.40
2017-12-15T14:46:36.093Z,38.73
2017-12-15T14:49:02.368Z,31.10
2017-12-15T14:51:28.626Z,35.77
2017-12-15T14:53:54.881Z,35.80
2017-12-15T14:56:21.913Z,28.37
2017-12-15T14:58:48.915Z,32.53
2017-12-15T15:01:15.202Z,32.33
2017-12-15T15:03:42.187Z,36.03
2017-12-15T15:06:08.467Z,40.63
2017-12-15T15:08:35.443Z,36.90
2017-12-15T15:11:01.741Z,35.70
2017-12-15T15:13:28.716Z,45.47
2017-12-15T15:15:54.982Z,45.60
2017-12-15T15:18:22.016Z,52.73
2017-12-15T15:20:48.586Z,50.70
2017-12-15T15:23:14.839Z,55.43
2017-12-15T15:25:41.686Z,48.07
2017-12-15T15:28:07.929Z,31.00
2017-12-15T15:30:34.200Z,30.20
2017-12-15T15:33:00.551Z,42.90
2017-12-15T15:35:26.853Z,116.43
2017-12-15T15:37:53.120Z,98.27
2017-12-15T15:40:20.156Z,64.87
2017-12-15T15:42:46.425Z,61.23
2017-12-15T15:45:12.708Z,66.50
2017-12-15T15:47:38.993Z,64.47
2017-12-15T15:50:05.273Z,70.57
2017-12-15T15:52:31.589Z,57.17
2017-12-15T15:54:58.119Z,74.03
2017-12-15T15:57:24.411Z,65.37
2017-12-15T15:59:50.727Z,81.73
2017-12-15T16:02:17.026Z,72.70
2017-12-15T16:04:43.286Z,87.77
2017-12-15T16:07:09.581Z,94.27
2017-12-15T16:09:35.858Z,84.27
2017-12-15T16:12:02.129Z,68.57
2017-12-15T16:14:28.414Z,69.87
2017-12-15T16:16:54.719Z,93.53
2017-12-15T16:19:21.783Z,66.70
2017-12-15T16:21:48.036Z,54.70
2017-12-15T16:24:14.333Z,82.90
2017-12-15T16:26:41.346Z,61.67
2017-12-15T16:29:07.825Z,67.20
2017-12-15T16:31:34.114Z,65.30
2017-12-15T16:34:00.411Z,76.43
2017-12-15T16:36:26.721Z,81.87
2017-12-15T16:38:53.043Z,94.73
2017-12-15T16:41:19.346Z,88.67
2017-12-15T16:43:46.394Z,88.97
2017-12-15T16:46:12.663Z,65.40
2017-12-15T16:48:38.987Z,82.10
2017-12-15T16:51:05.247Z,50.23
2017-12-15T16:53:31.535Z,51.10
2017-12-15T16:55:57.811Z,48.17
2017-12-15T16:58:24.105Z,50.80
2017-12-15T17:00:50.363Z,54.93
2017-12-15T17:03:16.672Z,57.23
2017-12-15T17:05:43.018Z,42.17
2017-12-15T17:08:09.312Z,36.60
2017-12-15T17:10:36.337Z,46.10
2017-12-15T17:13:03.414Z,43.50
2017-12-15T17:15:29.679Z,52.53
2017-12-15T17:17:55.966Z,61.10
2017-12-15T17:20:22.245Z,56.33
2017-12-15T17:22:48.544Z,57.53
2017-12-15T17:25:14.821Z,55.63
2017-12-15T17:27:41.331Z,50.97
2017-12-15T17:30:07.636Z,49.23
2017-12-15T17:32:33.883Z,50.03
2017-12-15T17:35:00.159Z,50.33
2017-12-15T17:37:27.198Z,43.70
2017-12-15T17:39:53.445Z,46.70
2017-12-15T17:42:20.439Z,43.40
2017-12-15T17:44:46.760Z,40.53
2017-12-15T17:47:13.021Z,44.53
2017-12-15T17:49:39.544Z,42.40
2017-12-15T17:52:05.832Z,43.40
2017-12-15T17:54:32.079Z,37.30
2017-12-15T17:56:58.356Z,49.50
2017-12-15T17:59:24.629Z,42.60
2017-12-15T18:01:50.880Z,52.73
2017-12-15T18:04:17.154Z,54.73
2017-12-15T18:06:44.211Z,52.93
2017-12-15T18:09:11.229Z,45.80
2017-12-15T18:11:37.503Z,47.30
2017-12-15T18:14:03.792Z,41.13
2017-12-15T18:16:30.825Z,46.73
2017-12-15T18:18:57.063Z,41.40
2017-12-15T18:21:23.302Z,50.03
2017-12-15T18:23:49.602Z,46.60
2017-12-15T18:26:15.888Z,40.87
2017-12-15T18:28:42.884Z,47.87
2017-12-15T18:31:09.143Z,50.30
2017-12-15T18:33:36.169Z,49.60
2017-12-15T18:36:02.444Z,60.43
2017-12-15T18:38:28.813Z,56.20
2017-12-15T18:40:57.952Z,46.10
2017-12-15T18:43:24.969Z,44.90
2017-12-15T18:45:51.211Z,65.97
2017-12-15T18:48:17.493Z,54.17
2017-12-15T18:50:43.753Z,57.70
2017-12-15T18:55:43.113Z,45.33
2017-12-15T18:58:10.162Z,49.97
2017-12-15T19:00:37.175Z,48.27
2017-12-15T19:03:03.488Z,49.13
2017-12-15T19:05:29.793Z,42.80
2017-12-15T19:07:56.062Z,47.90
2017-12-15T19:10:22.552Z,48.90
2017-12-15T19:12:48.957Z,44.07
2017-12-15T19:15:15.948Z,44.20
2017-12-15T19:17:42.228Z,42.57
2017-12-15T19:20:09.237Z,47.10
2017-12-15T19:22:35.509Z,43.73
2017-12-15T19:25:02.508Z,43.07
2017-12-15T19:27:28.808Z,44.47
2017-12-15T19:29:55.918Z,33.13
2017-12-15T19:32:22.968Z,52.73
2017-12-15T19:34:49.244Z,41.57
2017-12-15T19:37:15.539Z,47.60
2017-12-15T19:39:42.514Z,42.83
2017-12-15T19:42:08.808Z,50.40
2017-12-15T19:44:35.809Z,41.10
2017-12-15T19:47:02.070Z,45.07
2017-12-15T19:49:28.332Z,38.87
2017-12-15T19:51:54.601Z,33.70
2017-12-15T19:54:20.863Z,39.47
2017-12-15T19:56:47.152Z,53.20
2017-12-15T19:59:13.455Z,59.10
2017-12-15T20:01:39.758Z,36.77
2017-12-15T20:04:06.024Z,40.17
2017-12-15T20:06:32.324Z,36.77
2017-12-15T20:08:59.329Z,31.47
2017-12-15T20:11:25.646Z,38.97
2017-12-15T20:13:51.904Z,38.50
2017-12-15T20:16:18.176Z,46.20
2017-12-15T20:18:44.442Z,43.10
2017-12-15T20:21:10.754Z,45.83
2017-12-15T20:23:37.017Z,41.10
2017-12-15T20:26:04.779Z,33.13
2017-12-15T20:28:31.268Z,29.17
2017-12-15T20:30:57.600Z,38.40
2017-12-15T20:33:23.883Z,38.47
2017-12-15T20:35:50.172Z,37.87
2017-12-15T20:38:16.431Z,40.70
2017-12-15T20:40:42.725Z,32.80
2017-12-15T20:43:09.006Z,39.50
2017-12-15T20:45:35.273Z,41.67
2017-12-15T20:48:01.540Z,34.17
2017-12-15T20:50:27.836Z,36.40
2017-12-15T20:52:54.121Z,36.60
2017-12-15T20:55:20.401Z,29.67
2017-12-15T20:57:46.670Z,34.67
2017-12-15T21:00:12.953Z,38.80
2017-12-15T21:02:39.212Z,36.53
2017-12-15T21:05:05.485Z,37.00
2017-12-15T21:07:32.476Z,37.03
2017-12-15T21:09:58.757Z,41.90
2017-12-15T21:12:25.778Z,40.10
2017-12-15T21:14:52.069Z,36.03
2017-12-15T21:17:18.339Z,31.43
2017-12-15T21:19:44.622Z,38.27
2017-12-15T21:22:10.919Z,29.77
2017-12-15T21:24:37.191Z,39.50
2017-12-15T21:27:03.513Z,40.97
2017-12-15T21:29:29.839Z,37.60
2017-12-15T21:31:56.102Z,28.63
2017-12-15T21:34:22.392Z,53.10
2017-12-15T21:36:48.676Z,35.57
2017-12-15T21:39:14.939Z,50.97
2017-12-15T21:41:41.934Z,44.87
2017-12-15T21:44:08.221Z,36.10
2017-12-15T21:46:35.212Z,45.13
2017-12-15T21:49:01.483Z,40.80
2017-12-15T21:51:28.501Z,40.97
2017-12-15T21:53:54.744Z,37.10
2017-12-15T21:56:21.026Z,39.30
2017-12-15T21:58:47.284Z,45.17
2017-12-15T22:01:13.550Z,39.60
2017-12-15T22:03:40.544Z,36.73
2017-12-15T22:06:06.853Z,33.13
2017-12-15T22:08:33.129Z,38.27
2017-12-15T22:10:59.431Z,34.90
2017-12-15T22:13:25.748Z,32.10
2017-12-15T22:15:51.983Z,41.03
2017-12-15T22:18:18.270Z,37.13
2017-12-15T22:20:45.255Z,33.20
2017-12-15T22:23:11.482Z,24.00
2017-12-15T22:25:37.752Z,28.93
2017-12-15T22:28:04.032Z,32.60
2017-12-15T22:30:30.297Z,34.30
2017-12-15T22:32:56.535Z,28.00
2017-12-15T22:35:22.824Z,30.57
2017-12-15T22:37:49.097Z,29.70
2017-12-15T22:40:15.353Z,26.83
2017-12-15T22:42:42.362Z,29.90
2017-12-15T22:45:08.601Z,31.13
2017-12-15T22:47:34.861Z,30.90
2017-12-15T22:50:02.079Z,29.60
2017-12-15T22:52:29.112Z,26.83
2017-12-15T22:54:55.378Z,35.23
2017-12-15T22:57:22.392Z,32.60
2017-12-15T22:59:48.694Z,35.80
2017-12-15T23:02:15.024Z,33.83
2017-12-15T23:04:42.004Z,27.35
2017-12-15T23:07:08.268Z,30.30
2017-12-15T23:09:35.277Z,31.30
2017-12-15T23:12:01.566Z,32.33
2017-12-15T23:14:27.830Z,25.53
2017-12-15T23:16:54.105Z,25.90
2017-12-15T23:19:21.112Z,28.27
2017-12-15T23:21:47.392Z,34.87
2017-12-15T23:24:13.658Z,27.30
2017-12-15T23:26:39.963Z,27.63
2017-12-15T23:29:06.241Z,28.10
2017-12-15T23:31:32.522Z,29.63
2017-12-15T23:33:58.770Z,24.67
2017-12-15T23:36:25.023Z,24.90
2017-12-15T23:38:51.259Z,22.80
2017-12-15T23:41:17.550Z,27.37
2017-12-15T23:43:43.787Z,26.50
2017-12-15T23:46:10.076Z,21.83
2017-12-15T23:48:37.091Z,25.43
2017-12-15T23:51:03.366Z,23.27
2017-12-15T23:53:29.599Z,29.02
2017-12-15T23:56:08.253Z,25.60
2017-12-15T23:58:34.504Z,23.77
